Terminal Aerodrome Forecast
Issued by NWS Tampa Bay Area, FL

Home | Current Version | Previous Version | Text Only | Print | Product List | Glossary On
Versions: 1 2 3 4 5 6 7 8 9 10 11 12 13 14 15 16 17 18
014
FTUS42 KTBW 061121 AAA
TAFSRQ
TAF AMD
KSRQ 061121Z 0611/0712 03008KT P6SM BKN035
     FM061500 02007KT P6SM BKN025
     FM062000 34008KT P6SM VCSH SCT010 OVC025
     FM062100 34009KT P6SM VCSH SCT010 OVC020
     FM070100 34010G15KT P6SM SCT010 OVC080
     FM071100 34013G19KT P6SM SCT120=

USA.gov is the U.S. government's official web portal to all federal, state and local government web resources and services.